Time;durP1;ratioP1;P1;durP2;ratioP2;P2;SDS_P1;SDS_P2;PMS_P1;PMS_P2;Temp;Humidity;BMP_temperature;BMP_pressure;BME280_temperature;BME280_humidity;BME280_pressure;Samples;Min_cycle;Max_cycle;Signal;HPM_P1;HPM_P2
2021/10/19 00:00:14;;;;;;;48.90;29.00;;;;;;;9.29;72.66;99920.40;113858;1192;110353;-72
2021/10/19 00:03:02;;;;;;;48.70;29.20;;;;;;;9.28;72.68;99917.27;113808;1191;96035;-71
2021/10/19 00:05:30;;;;;;;59.50;31.70;;;;;;;9.29;72.75;99918.48;113938;1192;107520;-72
2021/10/19 00:07:58;;;;;;;48.80;29.60;;;;;;;9.29;72.71;99917.08;113698;1193;97625;-72
2021/10/19 00:10:26;;;;;;;53.40;29.60;;;;;;;9.28;72.81;99917.61;113804;1192;95581;-73
2021/10/19 00:12:55;;;;;;;55.80;29.60;;;;;;;9.28;72.73;99918.48;113902;1193;111240;-71
2021/10/19 00:15:22;;;;;;;49.30;29.20;;;;;;;9.29;72.78;99916.33;113927;1193;98247;-72
2021/10/19 00:17:50;;;;;;;51.50;30.10;;;;;;;9.27;72.69;99917.52;113937;1191;107517;-72
2021/10/19 00:20:18;;;;;;;51.40;30.30;;;;;;;9.26;72.72;99916.83;113950;1192;97551;-72
2021/10/19 00:22:46;;;;;;;49.40;29.40;;;;;;;9.26;72.84;99920.58;113872;1191;97639;-71
2021/10/19 00:25:17;;;;;;;47.20;29.10;;;;;;;9.25;72.83;99919.70;113982;1191;111115;-73
2021/10/19 00:27:47;;;;;;;46.80;26.50;;;;;;;9.26;72.95;99919.52;113760;1192;97568;-71
2021/10/19 00:30:16;;;;;;;50.10;29.90;;;;;;;9.25;72.87;99919.73;114549;1191;107504;-72
2021/10/19 00:32:44;;;;;;;44.80;27.50;;;;;;;9.26;72.84;99924.11;113521;1192;97216;-73
2021/10/19 00:35:16;;;;;;;49.10;28.20;;;;;;;9.27;72.91;99928.13;113835;1192;97573;-70
2021/10/19 00:37:48;;;;;;;49.10;29.00;;;;;;;9.28;73.00;99924.91;113909;1183;111174;-70
2021/10/19 00:40:16;;;;;;;50.00;29.30;;;;;;;9.28;72.93;99922.77;113946;1192;95042;-71
2021/10/19 00:42:44;;;;;;;48.30;29.30;;;;;;;9.29;72.89;99924.84;113948;1192;107513;-74
2021/10/19 00:45:12;;;;;;;48.50;29.30;;;;;;;9.28;72.87;99924.88;113957;1193;98401;-72
2021/10/19 00:47:48;;;;;;;48.30;27.90;;;;;;;9.26;72.92;99920.38;113947;1191;98233;-73
2021/10/19 00:50:19;;;;;;;51.10;29.30;;;;;;;9.25;72.93;99923.10;113895;1192;111351;-74
2021/10/19 00:52:52;;;;;;;50.10;30.30;;;;;;;9.24;73.08;99919.56;113976;1192;95633;-74
2021/10/19 00:55:20;;;;;;;50.50;29.90;;;;;;;9.24;72.86;99923.15;113621;1193;108640;-73
2021/10/19 00:57:48;;;;;;;50.20;30.80;;;;;;;9.24;73.00;99923.83;113647;1193;98073;-73
2021/10/19 01:00:20;;;;;;;54.70;30.90;;;;;;;9.26;73.06;99923.23;113937;1192;97760;-72
2021/10/19 01:02:48;;;;;;;51.50;30.40;;;;;;;9.26;72.95;99924.83;113888;1193;111156;-73
2021/10/19 01:05:20;;;;;;;48.70;29.00;;;;;;;9.26;73.03;99924.61;113742;1193;96911;-72
2021/10/19 01:07:51;;;;;;;55.20;31.40;;;;;;;9.27;72.93;99923.19;113949;1193;107484;-72
2021/10/19 01:10:19;;;;;;;51.30;31.80;;;;;;;9.27;73.01;99922.96;113686;1193;97568;-71
2021/10/19 01:12:52;;;;;;;55.10;31.40;;;;;;;9.28;72.94;99917.80;113904;1193;97618;-73
2021/10/19 01:15:20;;;;;;;50.90;29.10;;;;;;;9.28;73.02;99918.67;113826;1193;111277;-73
2021/10/19 01:17:50;;;;;;;49.50;29.30;;;;;;;9.29;72.93;99921.48;113963;1193;97534;-72
2021/10/19 01:20:24;;;;;;;48.50;29.10;;;;;;;9.29;73.01;99918.28;113623;1193;107503;-74
2021/10/19 01:22:57;;;;;;;49.40;29.50;;;;;;;9.31;72.98;99923.13;113745;1192;97661;-74
2021/10/19 01:25:31;;;;;;;49.00;28.20;;;;;;;9.31;72.90;99920.80;114005;1191;97605;-74
2021/10/19 01:28:08;;;;;;;50.00;28.70;;;;;;;9.31;72.97;99918.51;113778;1192;111149;-72
2021/10/19 01:30:48;;;;;;;48.10;28.30;;;;;;;9.31;72.97;99921.20;113427;1193;97501;-73
2021/10/19 01:33:16;;;;;;;49.50;28.00;;;;;;;9.31;72.92;99922.77;113855;1192;107531;-71
2021/10/19 01:35:46;;;;;;;47.80;28.00;;;;;;;9.32;73.00;99918.84;113552;1192;97690;-73
2021/10/19 01:38:20;;;;;;;47.70;27.00;;;;;;;9.33;73.00;99919.99;113863;1191;95795;-72
2021/10/19 01:40:53;;;;;;;47.40;26.80;;;;;;;9.34;73.02;99915.16;113776;1192;110149;-73
2021/10/19 01:43:27;;;;;;;45.20;27.20;;;;;;;9.33;73.01;99918.05;113850;1191;97578;-73
2021/10/19 01:45:59;;;;;;;;;;;;;;;9.34;73.00;99912.55;113937;1192;106217;-71
2021/10/19 01:48:32;;;;;;;44.80;25.20;;;;;;;9.32;73.05;99912.09;113939;1193;95173;-72
2021/10/19 01:51:04;;;;;;;46.20;26.40;;;;;;;9.32;72.98;99908.90;114007;1192;97643;-74
2021/10/19 01:53:32;;;;;;;44.20;26.40;;;;;;;9.31;72.97;99909.65;113466;1193;112778;-73
2021/10/19 01:56:00;;;;;;;42.70;24.70;;;;;;;9.32;72.93;99914.57;113982;1192;97894;-74
2021/10/19 01:58:27;;;;;;;40.30;23.80;;;;;;;9.32;72.96;99910.53;113967;1192;107202;-72
2021/10/19 02:00:59;;;;;;;43.60;25.20;;;;;;;9.31;72.98;99911.12;113971;1192;95036;-72
2021/10/19 02:03:27;;;;;;;40.90;24.10;;;;;;;9.31;72.89;99914.63;113937;1193;98060;-72
2021/10/19 02:05:59;;;;;;;39.80;24.00;;;;;;;9.29;72.91;99918.09;113903;1193;111291;-72
2021/10/19 02:08:26;;;;;;;41.40;24.00;;;;;;;9.29;72.94;99919.70;113991;1192;97644;-73
2021/10/19 02:10:59;;;;;;;42.40;23.60;;;;;;;9.30;72.84;99922.83;113959;1192;107134;-72
2021/10/19 02:13:27;;;;;;;39.00;23.20;;;;;;;9.31;72.96;99922.07;113926;1193;94976;-73
2021/10/19 02:15:58;;;;;;;41.30;23.50;;;;;;;9.32;72.96;99922.02;113941;1192;97569;-70
2021/10/19 02:18:26;;;;;;;42.70;24.10;;;;;;;9.33;72.98;99921.27;113923;1193;111150;-73
2021/10/19 02:20:54;;;;;;;38.00;22.90;;;;;;;9.33;72.90;99922.83;113963;1193;97525;-73
2021/10/19 02:23:22;;;;;;;38.60;22.90;;;;;;;9.33;72.90;99919.48;113928;1192;106568;-74
2021/10/19 02:25:54;;;;;;;44.00;22.80;;;;;;;9.30;72.89;99917.69;113919;1192;97592;-74
2021/10/19 02:28:21;;;;;;;40.90;22.20;;;;;;;9.29;72.94;99917.23;113961;1193;95062;-75
2021/10/19 02:30:49;;;;;;;40.50;22.70;;;;;;;9.29;72.97;99918.27;113957;1193;111778;-74
2021/10/19 02:33:17;;;;;;;39.80;22.50;;;;;;;9.30;72.99;99915.23;113963;1193;95063;-74
2021/10/19 02:35:45;;;;;;;39.20;22.30;;;;;;;9.31;72.92;99917.30;113949;1192;108521;-75
2021/10/19 02:38:13;;;;;;;37.50;22.30;;;;;;;9.32;72.93;99915.48;113929;1193;97642;-74
2021/10/19 02:40:41;;;;;;;36.60;21.40;;;;;;;9.32;72.99;99915.48;113668;1192;97848;-74
2021/10/19 02:43:09;;;;;;;35.60;20.80;;;;;;;9.32;72.98;99918.84;113588;1192;111176;-73
2021/10/19 02:45:37;;;;;;;41.80;21.90;;;;;;;9.32;72.97;99923.61;113540;1193;97595;-73
2021/10/19 02:48:04;;;;;;;38.00;19.90;;;;;;;9.31;73.04;99919.77;113763;1193;105501;-71
2021/10/19 02:50:32;;;;;;;36.60;20.70;;;;;;;9.32;73.06;99924.84;113587;1192;97550;-72
2021/10/19 02:53:00;;;;;;;39.10;22.60;;;;;;;9.32;73.02;99921.66;113614;1193;96356;-72
2021/10/19 02:55:28;;;;;;;37.00;21.20;;;;;;;9.32;72.96;99922.55;114177;1191;110953;-72
2021/10/19 02:57:56;;;;;;;33.90;19.60;;;;;;;9.32;72.88;99925.02;113682;1191;95742;-72
2021/10/19 03:00:24;;;;;;;38.90;21.60;;;;;;;9.32;72.88;99926.64;113588;1193;107358;-73
2021/10/19 03:02:51;;;;;;;40.20;20.70;;;;;;;9.32;72.94;99923.09;113928;1191;98201;-71
2021/10/19 03:05:19;;;;;;;36.60;20.30;;;;;;;9.32;73.04;99927.31;114003;1191;97582;-72
2021/10/19 03:07:47;;;;;;;37.80;22.70;;;;;;;9.34;73.08;99925.12;114065;1192;111097;-72
2021/10/19 03:10:15;;;;;;;40.20;21.40;;;;;;;9.36;72.98;99925.53;113861;1192;97627;-71
2021/10/19 03:12:43;;;;;;;38.60;21.50;;;;;;;9.35;73.02;99922.22;113996;1192;107505;-72
2021/10/19 03:15:19;;;;;;;40.80;21.90;;;;;;;9.34;73.01;99921.54;113932;1193;97546;-72
2021/10/19 03:17:54;;;;;;;36.00;21.20;;;;;;;9.34;73.10;99921.20;113966;1192;95007;-69
2021/10/19 03:20:22;;;;;;;43.30;21.70;;;;;;;9.33;72.93;99918.42;113932;1193;111137;-70
2021/10/19 03:22:50;;;;;;;39.70;22.30;;;;;;;9.31;72.98;99911.61;113970;1193;95039;-72
2021/10/19 03:25:18;;;;;;;42.60;24.10;;;;;;;9.32;72.94;99913.87;113932;1192;107495;-72
2021/10/19 03:27:45;;;;;;;38.30;23.60;;;;;;;9.32;73.02;99913.16;113783;1193;97638;-71
2021/10/19 03:30:13;;;;;;;41.70;23.10;;;;;;;9.33;73.01;99916.30;113803;1193;95376;-70
2021/10/19 03:32:41;;;;;;;40.30;23.10;;;;;;;9.32;73.00;99917.61;114001;1193;110984;-71
2021/10/19 03:35:10;;;;;;;41.40;22.60;;;;;;;9.32;73.03;99921.15;113858;1193;97537;-72
2021/10/19 03:37:42;;;;;;;41.10;23.50;;;;;;;9.32;73.04;99919.37;113876;1193;108167;-72
2021/10/19 03:40:13;;;;;;;39.30;22.50;;;;;;;9.31;73.04;99918.86;113965;1193;95103;-72
2021/10/19 03:42:41;;;;;;;39.90;22.50;;;;;;;9.31;73.11;99920.99;113965;1192;97711;-73
2021/10/19 03:45:17;;;;;;;44.00;22.90;;;;;;;9.32;73.05;99918.99;113935;1193;111145;-71
2021/10/19 03:47:49;;;;;;;38.30;20.80;;;;;;;9.33;73.04;99911.89;113939;1193;97583;-71
2021/10/19 03:50:17;;;;;;;38.60;21.90;;;;;;;9.32;73.09;99910.84;113947;1184;106267;-71
2021/10/19 03:52:44;;;;;;;38.60;21.80;;;;;;;9.31;72.97;99913.93;113909;1193;97530;-71
2021/10/19 03:55:13;;;;;;;37.20;22.10;;;;;;;9.31;73.03;99916.77;113960;1192;97565;-71
2021/10/19 03:57:41;;;;;;;39.60;21.80;;;;;;;9.32;73.04;99916.88;113939;1193;111251;-72
2021/10/19 04:00:10;;;;;;;39.80;21.00;;;;;;;9.33;73.10;99911.15;113972;1192;95022;-72
2021/10/19 04:02:38;;;;;;;38.10;21.00;;;;;;;9.33;73.07;99914.68;113963;1193;107519;-71
2021/10/19 04:05:09;;;;;;;35.90;19.30;;;;;;;9.33;73.12;99912.59;113925;1192;97464;-71
2021/10/19 04:07:37;;;;;;;35.60;19.60;;;;;;;9.31;73.06;99913.91;113957;1192;97549;-70
2021/10/19 04:10:06;;;;;;;34.00;19.80;;;;;;;9.31;73.04;99911.80;113966;1193;111275;-70
2021/10/19 04:12:33;;;;;;;35.10;19.10;;;;;;;9.32;73.16;99915.13;114002;1193;97602;-70
2021/10/19 04:15:01;;;;;;;35.20;19.20;;;;;;;9.32;73.17;99916.51;113965;1192;107533;-69
2021/10/19 04:17:29;;;;;;;37.50;19.70;;;;;;;9.30;73.06;99920.01;113926;1193;97596;-71
2021/10/19 04:20:01;;;;;;;35.40;18.90;;;;;;;9.29;73.10;99920.73;113951;1193;97608;-72
2021/10/19 04:22:29;;;;;;;35.20;18.40;;;;;;;9.31;73.11;99921.38;113938;1193;110995;-74
2021/10/19 04:24:58;;;;;;;35.70;18.20;;;;;;;9.31;73.13;99919.39;113984;1193;97550;-71
2021/10/19 04:27:29;;;;;;;33.70;19.90;;;;;;;9.31;73.18;99913.57;113998;1191;107490;-70
2021/10/19 04:29:57;;;;;;;33.90;17.90;;;;;;;9.31;73.05;99912.17;113988;1193;96489;-69
2021/10/19 04:32:25;;;;;;;36.00;19.00;;;;;;;9.30;73.06;99912.91;113988;1192;94960;-70
2021/10/19 04:34:53;;;;;;;35.50;20.60;;;;;;;9.31;73.14;99914.08;113991;1192;111169;-70
2021/10/19 04:37:20;;;;;;;34.20;18.50;;;;;;;9.33;73.07;99912.94;114006;1192;97488;-69
2021/10/19 04:39:48;;;;;;;31.50;17.10;;;;;;;9.32;73.06;99913.68;114019;1193;107629;-70
2021/10/19 04:42:16;;;;;;;37.10;19.10;;;;;;;9.31;73.03;99912.70;113741;1192;97635;-68
2021/10/19 04:44:46;;;;;;;37.30;21.00;;;;;;;9.26;73.11;99907.45;113681;1193;97548;-70
2021/10/19 04:47:17;;;;;;;42.10;22.90;;;;;;;9.17;73.27;99907.42;113305;1187;112449;-71
2021/10/19 04:49:45;;;;;;;43.70;23.70;;;;;;;9.03;73.38;99907.63;113408;1199;97014;-68
2021/10/19 04:52:13;;;;;;;38.10;20.00;;;;;;;8.92;73.64;99912.45;113659;1192;107977;-71
2021/10/19 04:54:40;;;;;;;41.60;21.30;;;;;;;8.84;73.66;99914.46;113676;1193;97668;-70
2021/10/19 04:57:08;;;;;;;40.10;22.60;;;;;;;8.76;73.65;99916.08;115143;1191;95456;-69
2021/10/19 04:59:36;;;;;;;40.10;22.30;;;;;;;8.72;73.88;99915.21;113889;1192;111183;-67
2021/10/19 05:02:04;;;;;;;44.50;25.50;;;;;;;8.66;74.13;99911.47;113898;1193;97630;-68
2021/10/19 05:04:35;;;;;;;46.00;26.10;;;;;;;8.59;73.94;99914.27;113942;1192;107526;-69
2021/10/19 05:07:03;;;;;;;45.60;26.60;;;;;;;8.56;74.10;99912.86;113917;1192;97530;-66
2021/10/19 05:09:32;;;;;;;46.30;25.40;;;;;;;8.53;74.14;99913.00;113756;1193;97648;-68
2021/10/19 05:12:06;;;;;;;42.70;24.80;;;;;;;8.49;74.56;99912.48;113838;1193;111689;-68
2021/10/19 05:14:34;;;;;;;47.00;24.20;;;;;;;8.44;74.61;99912.20;113696;1193;96351;-69
2021/10/19 05:17:02;;;;;;;39.40;22.20;;;;;;;8.40;74.68;99914.30;113680;1193;107491;-68
2021/10/19 05:19:30;;;;;;;36.90;20.50;;;;;;;8.39;74.64;99918.27;113892;1193;97593;-67
2021/10/19 05:21:58;;;;;;;40.50;22.10;;;;;;;8.40;74.67;99923.17;113926;1193;95477;-70
2021/10/19 05:24:26;;;;;;;36.40;20.70;;;;;;;8.42;74.64;99928.90;113920;1193;111174;-69
2021/10/19 05:26:54;;;;;;;40.10;20.60;;;;;;;8.44;74.60;99924.38;113948;1193;95010;-67
2021/10/19 05:29:21;;;;;;;35.70;20.30;;;;;;;8.45;74.50;99928.75;113896;1193;107532;-67
2021/10/19 05:31:49;;;;;;;37.20;19.70;;;;;;;8.48;74.70;99924.54;113458;1193;96125;-71
2021/10/19 05:34:22;;;;;;;36.40;18.50;;;;;;;8.54;74.49;99927.10;113883;1192;97638;-70
2021/10/19 05:36:49;;;;;;;35.80;19.10;;;;;;;8.60;74.52;99926.64;113531;1193;111751;-67
2021/10/19 05:39:18;;;;;;;33.50;17.50;;;;;;;8.66;74.51;99928.29;113337;1193;96061;-68
2021/10/19 05:41:46;;;;;;;33.90;16.60;;;;;;;8.70;74.55;99927.50;113702;1192;107689;-68
2021/10/19 05:44:14;;;;;;;30.70;15.40;;;;;;;8.76;74.58;99928.09;113611;1193;95033;-67
2021/10/19 05:46:42;;;;;;;33.60;16.30;;;;;;;8.81;74.56;99927.84;113647;1193;97652;-70
2021/10/19 05:49:09;;;;;;;33.00;17.30;;;;;;;8.87;74.48;99934.43;113720;1193;111227;-70
2021/10/19 05:51:37;;;;;;;31.70;16.90;;;;;;;8.92;74.49;99938.27;113646;1192;97573;-69
2021/10/19 05:54:05;;;;;;;35.10;17.40;;;;;;;8.98;74.52;99941.48;113677;1193;107631;-68
2021/10/19 05:56:33;;;;;;;33.60;17.80;;;;;;;9.04;74.55;99941.70;113612;1193;97531;-69
2021/10/19 05:59:01;;;;;;;31.30;16.90;;;;;;;9.11;74.54;99940.10;113666;1193;97588;-67
2021/10/19 06:01:28;;;;;;;29.30;15.40;;;;;;;9.17;74.51;99940.48;113655;1193;111170;-70
2021/10/19 06:04:00;;;;;;;32.70;16.90;;;;;;;9.22;74.53;99942.14;113505;1193;97538;-71
2021/10/19 06:06:28;;;;;;;30.50;15.00;;;;;;;9.27;74.50;99945.65;113686;1193;107633;-70
2021/10/19 06:08:56;;;;;;;29.90;15.50;;;;;;;9.30;74.46;99945.27;113665;1193;97550;-70
2021/10/19 06:11:27;;;;;;;28.50;15.20;;;;;;;9.34;74.37;99948.79;113613;1192;97625;-69
2021/10/19 06:13:55;;;;;;;28.80;15.20;;;;;;;9.38;74.52;99952.16;113669;1193;111250;-72
2021/10/19 06:16:27;;;;;;;28.70;16.00;;;;;;;9.38;74.52;99946.43;113656;1193;97532;-70
2021/10/19 06:18:57;;;;;;;29.70;16.30;;;;;;;9.41;74.47;99945.42;113638;1193;107574;-70
2021/10/19 06:21:25;;;;;;;29.10;15.70;;;;;;;9.44;74.47;99949.52;113659;1193;95068;-69
2021/10/19 06:23:53;;;;;;;29.80;14.90;;;;;;;9.46;74.53;99952.21;113720;1192;97630;-72
2021/10/19 06:26:20;;;;;;;31.40;16.30;;;;;;;9.50;74.48;99956.47;113719;1193;112146;-70
2021/10/19 06:28:48;;;;;;;29.90;15.30;;;;;;;9.53;74.49;99957.18;113672;1193;97534;-71
2021/10/19 06:31:16;;;;;;;30.30;15.50;;;;;;;9.55;74.48;99956.36;113614;1193;107598;-69
2021/10/19 06:33:44;;;;;;;28.90;14.70;;;;;;;9.58;74.44;99958.84;113647;1193;97634;-70
2021/10/19 06:36:12;;;;;;;28.20;14.20;;;;;;;9.62;74.44;99958.66;113399;1193;97556;-70
2021/10/19 06:38:39;;;;;;;26.70;13.50;;;;;;;9.64;74.49;99955.51;113625;1193;111112;-71
2021/10/19 06:41:07;;;;;;;26.30;13.50;;;;;;;9.67;74.45;99955.70;113695;1192;97599;-71
2021/10/19 06:43:35;;;;;;;28.60;14.40;;;;;;;9.69;74.42;99957.71;113697;1193;107561;-71
2021/10/19 06:46:07;;;;;;;26.90;13.70;;;;;;;9.72;74.34;99956.37;113611;1192;95128;-71
2021/10/19 06:48:35;;;;;;;28.80;14.60;;;;;;;9.74;74.40;99957.80;113629;1193;95206;-71
2021/10/19 06:51:05;;;;;;;26.60;13.40;;;;;;;9.77;74.38;99961.76;113801;1192;111182;-71
2021/10/19 06:53:39;;;;;;;27.40;13.40;;;;;;;9.79;74.41;99960.73;113647;1178;97647;-70
2021/10/19 06:56:06;;;;;;;27.40;13.70;;;;;;;9.81;74.43;99958.84;113713;1193;107522;-70
2021/10/19 06:58:34;;;;;;;27.30;14.10;;;;;;;9.86;74.41;99964.77;113757;1192;97550;-71
2021/10/19 07:01:05;;;;;;;25.60;12.90;;;;;;;9.90;74.43;99961.20;113754;1192;97650;-72
2021/10/19 07:03:33;;;;;;;26.20;13.20;;;;;;;9.93;74.42;99963.67;113621;1193;111218;-70
2021/10/19 07:06:07;;;;;;;25.80;13.20;;;;;;;9.97;74.37;99961.85;113636;1193;98454;-70
2021/10/19 07:08:36;;;;;;;26.10;13.40;;;;;;;9.99;74.31;99957.48;113595;1193;107426;-74
2021/10/19 07:11:08;;;;;;;25.10;13.00;;;;;;;10.04;74.35;99955.63;113911;1193;97679;-69
2021/10/19 07:13:46;;;;;;;24.20;12.10;;;;;;;10.09;74.31;99957.14;113961;1193;97699;-70
2021/10/19 07:16:13;;;;;;;24.50;12.40;;;;;;;10.13;74.27;99958.69;113918;1192;111193;-70
2021/10/19 07:18:41;;;;;;;24.10;12.20;;;;;;;10.18;74.25;99961.95;113910;1191;97568;-72
2021/10/19 07:21:09;;;;;;;25.10;11.90;;;;;;;10.22;74.35;99963.48;113919;1193;107526;-71
2021/10/19 07:23:37;;;;;;;23.00;11.20;;;;;;;10.26;74.30;99964.66;113920;1184;98773;-70
2021/10/19 07:26:05;;;;;;;22.00;11.10;;;;;;;10.30;74.27;99967.63;113604;1193;97668;-70
2021/10/19 07:28:37;;;;;;;25.10;11.50;;;;;;;10.35;74.24;99966.27;113941;1192;111150;-71
2021/10/19 07:31:04;;;;;;;24.50;11.30;;;;;;;10.40;74.22;99968.84;113899;1192;97556;-71
2021/10/19 07:33:36;;;;;;;21.60;10.30;;;;;;;10.46;74.22;99969.61;113921;1193;107706;-72
2021/10/19 07:36:07;;;;;;;25.70;11.30;;;;;;;10.52;74.21;99968.17;113930;1193;97667;-70
2021/10/19 07:38:35;;;;;;;22.70;10.10;;;;;;;10.59;74.18;99963.54;113906;1191;94986;-69
2021/10/19 07:41:03;;;;;;;21.70;10.40;;;;;;;10.65;74.23;99957.49;113889;1193;111232;-72
2021/10/19 07:43:31;;;;;;;23.30;10.70;;;;;;;10.71;74.16;99955.56;113942;1192;98266;-71
2021/10/19 07:45:59;;;;;;;21.10;9.40;;;;;;;10.78;74.16;99956.27;113896;1193;107338;-73
2021/10/19 07:48:26;;;;;;;22.20;10.00;;;;;;;10.84;74.18;99962.45;113906;1193;97580;-71
2021/10/19 07:50:58;;;;;;;20.30;9.40;;;;;;;10.87;74.13;99957.09;113918;1193;97573;-72
2021/10/19 07:53:26;;;;;;;21.70;10.30;;;;;;;10.94;74.08;99954.05;113922;1193;111146;-70
2021/10/19 07:55:58;;;;;;;19.40;9.00;;;;;;;10.97;73.99;99953.66;113947;1192;97577;-72
2021/10/19 07:58:30;;;;;;;21.10;10.70;;;;;;;11.01;74.02;99956.29;113937;1193;107504;-71
2021/10/19 08:00:57;;;;;;;20.00;9.70;;;;;;;11.06;73.99;99951.52;113892;1192;99402;-70
2021/10/19 08:03:25;;;;;;;23.40;11.30;;;;;;;11.11;73.88;99954.06;113702;1193;97638;-70
2021/10/19 08:05:58;;;;;;;21.60;10.40;;;;;;;11.17;73.90;99957.11;113951;1192;111166;-71
2021/10/19 08:08:25;;;;;;;26.60;11.10;;;;;;;11.22;73.83;99957.15;113951;1192;97503;-71
2021/10/19 08:10:57;;;;;;;21.50;9.70;;;;;;;11.26;73.90;99951.89;113961;1192;106631;-71
2021/10/19 08:13:25;;;;;;;23.90;10.30;;;;;;;11.31;73.93;99952.33;113544;1193;97740;-72
2021/10/19 08:16:00;;;;;;;24.60;10.50;;;;;;;11.38;73.88;99957.45;113937;1193;97705;-71
2021/10/19 08:18:31;;;;;;;22.90;10.60;;;;;;;11.41;73.87;99958.27;113440;1193;111143;-69
2021/10/19 08:20:59;;;;;;;23.50;10.20;;;;;;;11.47;73.69;99957.76;113918;1192;97558;-71
2021/10/19 08:23:27;;;;;;;18.90;8.90;;;;;;;11.52;73.76;99961.17;113935;1192;107513;-71
2021/10/19 08:26:00;;;;;;;21.70;9.50;;;;;;;11.57;73.75;99961.05;113910;1193;95125;-71
2021/10/19 08:28:31;;;;;;;21.00;9.30;;;;;;;11.61;73.74;99959.17;113974;1193;95038;-71
2021/10/19 08:30:59;;;;;;;20.90;9.60;;;;;;;11.67;73.64;99958.85;113963;1193;111195;-72
2021/10/19 08:33:29;;;;;;;21.00;9.60;;;;;;;11.70;73.58;99965.03;113946;1192;97490;-71
2021/10/19 08:35:56;;;;;;;21.20;9.60;;;;;;;11.74;73.56;99962.67;114007;1192;107309;-71
2021/10/19 08:38:24;;;;;;;21.10;9.10;;;;;;;11.79;73.57;99959.16;113901;1193;97566;-70
2021/10/19 08:41:00;;;;;;;21.80;9.40;;;;;;;11.81;73.37;99958.65;113938;1193;97599;-71
2021/10/19 08:43:28;;;;;;;22.20;9.40;;;;;;;11.84;73.42;99958.45;113847;1193;111193;-71
2021/10/19 08:46:00;;;;;;;20.50;8.90;;;;;;;11.87;73.31;99953.79;113963;1192;97702;-71
2021/10/19 08:48:28;;;;;;;19.30;8.40;;;;;;;11.91;73.39;99950.92;113912;1192;107159;-72
2021/10/19 08:51:01;;;;;;;23.00;10.70;;;;;;;11.95;73.35;99949.83;113965;1192;97566;-72
2021/10/19 08:53:29;;;;;;;19.30;8.90;;;;;;;12.00;73.33;99949.69;113927;1193;97551;-71
2021/10/19 08:55:56;;;;;;;20.00;8.60;;;;;;;12.06;73.31;99952.11;113880;1192;110891;-70
2021/10/19 08:58:24;;;;;;;19.40;8.60;;;;;;;12.13;73.25;99948.30;113911;1192;97438;-72
2021/10/19 09:01:14;;;;;;;20.50;9.10;;;;;;;12.23;73.31;99943.93;113887;1192;107534;-73
2021/10/19 09:03:51;;;;;;;18.50;8.60;;;;;;;12.34;73.18;99946.59;113929;1193;97578;-73
2021/10/19 09:06:32;;;;;;;19.70;8.30;;;;;;;12.41;73.09;99950.43;113742;1193;95154;-72
2021/10/19 09:09:24;;;;;;;19.30;8.80;;;;;;;12.48;73.08;99944.00;113853;1193;111190;-71
2021/10/19 09:11:59;;;;;;;20.00;8.20;;;;;;;12.61;73.01;99948.36;113763;1192;97651;-70
2021/10/19 09:14:43;;;;;;;20.10;8.70;;;;;;;12.71;73.01;99946.44;113914;1193;107516;-71
2021/10/19 09:17:14;;;;;;;17.50;7.40;;;;;;;12.83;72.98;99945.09;113914;1192;97518;-71
2021/10/19 09:19:45;;;;;;;18.70;7.50;;;;;;;12.93;72.80;99941.23;113929;1193;97615;-71
2021/10/19 09:22:15;;;;;;;20.60;7.70;;;;;;;13.05;72.84;99941.48;113826;1193;111179;-72
2021/10/19 09:24:53;;;;;;;16.80;7.10;;;;;;;13.17;72.61;99942.95;113872;1191;95105;-71
2021/10/19 09:27:21;;;;;;;17.30;7.20;;;;;;;13.28;72.55;99938.65;113877;1193;106626;-71
2021/10/19 09:29:54;;;;;;;16.90;6.90;;;;;;;13.39;72.54;99942.71;113845;1193;95743;-71
2021/10/19 09:32:23;;;;;;;16.20;6.50;;;;;;;13.50;72.47;99944.97;113774;1192;95693;-71
2021/10/19 09:34:54;;;;;;;14.70;6.30;;;;;;;13.59;72.39;99949.66;113706;1193;110789;-71
2021/10/19 09:37:22;;;;;;;16.80;5.90;;;;;;;13.65;72.21;99948.88;113883;1192;97508;-70
2021/10/19 09:39:55;;;;;;;16.30;6.00;;;;;;;13.72;72.03;99952.68;113856;1192;107677;-71
2021/10/19 09:42:28;;;;;;;15.00;5.70;;;;;;;13.79;72.08;99952.55;113822;1193;97577;-72
2021/10/19 09:45:02;;;;;;;14.80;6.10;;;;;;;13.85;71.92;99956.20;113863;1192;97675;-71
2021/10/19 09:47:37;;;;;;;14.70;5.40;;;;;;;13.93;71.54;99954.39;113850;1192;111199;-70
2021/10/19 09:50:09;;;;;;;10.30;4.70;;;;;;;14.01;71.57;99953.81;113754;1192;97636;-71
2021/10/19 09:52:38;;;;;;;11.40;4.80;;;;;;;14.06;71.64;99948.80;114029;1192;107672;-72
2021/10/19 09:55:11;;;;;;;18.20;7.50;;;;;;;14.11;71.48;99945.25;113929;1193;97543;-71
2021/10/19 09:57:49;;;;;;;13.40;5.20;;;;;;;14.15;71.46;99943.14;113945;1192;97665;-71
2021/10/19 10:00:22;;;;;;;13.40;5.40;;;;;;;14.20;71.41;99942.66;113904;1193;111163;-71
2021/10/19 10:02:59;;;;;;;;;;;;;;;14.26;71.29;99940.94;113896;1192;97532;-71
2021/10/19 10:05:27;;;;;;;14.10;5.20;;;;;;;14.31;71.38;99941.45;113360;1193;107538;-71
2021/10/19 10:08:00;;;;;;;13.30;5.40;;;;;;;14.39;71.31;99938.38;113641;1193;98262;-69
2021/10/19 10:10:32;;;;;;;10.60;4.80;;;;;;;14.42;70.88;99932.06;113725;1192;97677;-73
2021/10/19 10:13:03;;;;;;;12.50;5.40;;;;;;;14.47;70.95;99933.31;113859;1192;110741;-71
2021/10/19 10:15:35;;;;;;;11.00;5.10;;;;;;;14.52;70.80;99935.06;113918;1192;97581;-73
2021/10/19 10:18:10;;;;;;;12.70;5.40;;;;;;;14.58;70.73;99934.06;113767;1184;107535;-71
2021/10/19 10:20:42;;;;;;;14.20;5.30;;;;;;;14.65;70.49;99926.98;113795;1192;96088;-72
2021/10/19 10:23:13;;;;;;;11.80;5.00;;;;;;;14.69;70.30;99925.63;113793;1193;95994;-71
2021/10/19 10:25:46;;;;;;;12.70;5.60;;;;;;;14.73;70.13;99923.70;113853;1192;111176;-73
2021/10/19 10:28:31;;;;;;;15.00;5.30;;;;;;;14.78;69.99;99915.48;113917;1193;97586;-72
2021/10/19 10:31:04;;;;;;;12.30;5.30;;;;;;;14.83;69.90;99911.16;113495;1193;107514;-72
2021/10/19 10:33:31;;;;;;;12.40;5.20;;;;;;;14.90;69.82;99905.45;113837;1193;97657;-73
2021/10/19 10:36:05;;;;;;;11.20;5.30;;;;;;;14.97;69.89;99907.02;113872;1192;97644;-72
2021/10/19 10:39:00;;;;;;;12.40;5.50;;;;;;;15.07;69.78;99900.64;113782;1192;110730;-74
2021/10/19 10:41:37;;;;;;;13.70;5.20;;;;;;;15.15;69.50;99895.14;113085;1193;95687;-71
2021/10/19 10:44:06;;;;;;;12.10;5.00;;;;;;;15.32;68.99;99892.39;113780;1192;109260;-72
2021/10/19 10:46:34;;;;;;;12.40;5.50;;;;;;;15.51;68.74;99896.38;113801;1193;97649;-73
2021/10/19 10:49:03;;;;;;;9.00;4.60;;;;;;;15.74;68.15;99893.33;113759;1192;97557;-70
2021/10/19 10:51:37;;;;;;;13.90;5.20;;;;;;;15.94;68.16;99891.74;113607;1192;111273;-69
2021/10/19 10:54:06;;;;;;;10.50;5.10;;;;;;;16.11;68.13;99884.30;113586;1193;96164;-73
2021/10/19 10:57:01;;;;;;;10.90;4.90;;;;;;;16.28;68.33;99878.77;113488;1192;107495;-69
2021/10/19 10:59:33;;;;;;;12.20;4.80;;;;;;;16.51;68.12;99868.57;113423;1192;97621;-71
2021/10/19 11:02:09;;;;;;;8.70;4.50;;;;;;;16.70;67.53;99860.61;113874;1193;97703;-72
2021/10/19 11:04:49;;;;;;;10.90;4.40;;;;;;;16.82;67.59;99859.21;113825;1192;111197;-71
2021/10/19 11:07:44;;;;;;;11.30;4.50;;;;;;;16.98;67.76;99848.88;113399;1193;97605;-72
2021/10/19 11:10:18;;;;;;;9.80;4.70;;;;;;;17.18;67.57;99845.88;113729;1192;108047;-73
2021/10/19 11:12:47;;;;;;;9.80;4.70;;;;;;;17.32;66.98;99838.91;113865;1192;97525;-72
2021/10/19 11:15:18;;;;;;;11.70;5.10;;;;;;;17.38;66.77;99837.16;113870;1192;98237;-72
2021/10/19 11:17:49;;;;;;;12.90;5.10;;;;;;;17.49;66.85;99833.30;113886;1192;111356;-73
2021/10/19 11:20:20;;;;;;;13.20;5.00;;;;;;;17.62;66.65;99827.85;113841;1192;97580;-70
2021/10/19 11:22:51;;;;;;;8.70;4.30;;;;;;;17.72;66.61;99826.04;113901;1192;107643;-70
2021/10/19 11:25:21;;;;;;;10.40;4.40;;;;;;;17.83;66.40;99825.02;113909;1193;97644;-70
2021/10/19 11:27:52;;;;;;;9.30;4.30;;;;;;;17.93;65.73;99825.59;113692;1193;97659;-69